sensor_id;sensor_type;location;lat;lon;timestamp;P1;durP1;ratioP1;P2;durP2;ratioP2
37945;SDS011;23769;52.478;13.448;2023-06-24T00:01:31;11.80;;;9.10;;
37945;SDS011;23769;52.478;13.448;2023-06-24T00:03:58;13.60;;;10.43;;
37945;SDS011;23769;52.478;13.448;2023-06-24T00:06:27;12.80;;;10.27;;
37945;SDS011;23769;52.478;13.448;2023-06-24T00:08:56;13.43;;;10.98;;
37945;SDS011;23769;52.478;13.448;2023-06-24T00:11:27;13.32;;;11.20;;
37945;SDS011;23769;52.478;13.448;2023-06-24T00:13:54;13.43;;;10.48;;
37945;SDS011;23769;52.478;13.448;2023-06-24T00:16:21;12.80;;;10.50;;
37945;SDS011;23769;52.478;13.448;2023-06-24T00:18:53;13.38;;;10.57;;
37945;SDS011;23769;52.478;13.448;2023-06-24T00:21:23;14.80;;;11.68;;
37945;SDS011;23769;52.478;13.448;2023-06-24T00:23:57;13.35;;;11.43;;
37945;SDS011;23769;52.478;13.448;2023-06-24T00:26:29;12.27;;;10.18;;
37945;SDS011;23769;52.478;13.448;2023-06-24T00:28:56;16.48;;;11.48;;
37945;SDS011;23769;52.478;13.448;2023-06-24T00:31:24;14.35;;;11.07;;
37945;SDS011;23769;52.478;13.448;2023-06-24T00:33:51;17.13;;;11.85;;
37945;SDS011;23769;52.478;13.448;2023-06-24T00:36:18;14.20;;;12.23;;
37945;SDS011;23769;52.478;13.448;2023-06-24T00:38:46;15.43;;;12.82;;
37945;SDS011;23769;52.478;13.448;2023-06-24T00:41:15;18.33;;;14.38;;
37945;SDS011;23769;52.478;13.448;2023-06-24T00:43:43;20.00;;;13.75;;
37945;SDS011;23769;52.478;13.448;2023-06-24T00:46:10;23.27;;;17.48;;
37945;SDS011;23769;52.478;13.448;2023-06-24T00:48:40;22.20;;;16.40;;
37945;SDS011;23769;52.478;13.448;2023-06-24T00:51:07;17.80;;;15.55;;
37945;SDS011;23769;52.478;13.448;2023-06-24T00:53:35;19.73;;;16.42;;
37945;SDS011;23769;52.478;13.448;2023-06-24T00:56:04;18.85;;;16.20;;
37945;SDS011;23769;52.478;13.448;2023-06-24T00:58:34;22.45;;;18.95;;
37945;SDS011;23769;52.478;13.448;2023-06-24T01:01:02;21.05;;;16.80;;
37945;SDS011;23769;52.478;13.448;2023-06-24T01:03:30;24.35;;;19.55;;
37945;SDS011;23769;52.478;13.448;2023-06-24T01:05:58;31.50;;;23.77;;
37945;SDS011;23769;52.478;13.448;2023-06-24T01:08:25;24.42;;;19.67;;
37945;SDS011;23769;52.478;13.448;2023-06-24T01:10:53;23.35;;;18.27;;
37945;SDS011;23769;52.478;13.448;2023-06-24T01:13:20;22.70;;;19.45;;
37945;SDS011;23769;52.478;13.448;2023-06-24T01:15:49;21.85;;;18.42;;
37945;SDS011;23769;52.478;13.448;2023-06-24T01:18:19;27.35;;;20.75;;
37945;SDS011;23769;52.478;13.448;2023-06-24T01:20:49;25.33;;;20.60;;
37945;SDS011;23769;52.478;13.448;2023-06-24T01:23:34;26.15;;;20.55;;
37945;SDS011;23769;52.478;13.448;2023-06-24T01:26:12;26.90;;;21.35;;
37945;SDS011;23769;52.478;13.448;2023-06-24T01:28:47;26.05;;;20.33;;
37945;SDS011;23769;52.478;13.448;2023-06-24T01:31:32;25.08;;;19.75;;
37945;SDS011;23769;52.478;13.448;2023-06-24T01:34:01;25.75;;;20.05;;
37945;SDS011;23769;52.478;13.448;2023-06-24T01:36:33;25.33;;;18.67;;
37945;SDS011;23769;52.478;13.448;2023-06-24T01:39:02;24.77;;;19.35;;
37945;SDS011;23769;52.478;13.448;2023-06-24T01:41:30;27.67;;;22.38;;
37945;SDS011;23769;52.478;13.448;2023-06-24T01:43:58;24.30;;;19.00;;
37945;SDS011;23769;52.478;13.448;2023-06-24T01:46:26;24.50;;;20.27;;
37945;SDS011;23769;52.478;13.448;2023-06-24T01:48:58;23.42;;;20.15;;
37945;SDS011;23769;52.478;13.448;2023-06-24T01:51:26;24.23;;;19.98;;
37945;SDS011;23769;52.478;13.448;2023-06-24T01:53:54;25.13;;;19.13;;
37945;SDS011;23769;52.478;13.448;2023-06-24T01:56:26;25.90;;;18.55;;
37945;SDS011;23769;52.478;13.448;2023-06-24T01:58:55;24.58;;;20.35;;
37945;SDS011;23769;52.478;13.448;2023-06-24T02:01:23;27.73;;;21.08;;
37945;SDS011;23769;52.478;13.448;2023-06-24T02:03:51;26.13;;;20.60;;
37945;SDS011;23769;52.478;13.448;2023-06-24T02:06:20;30.05;;;20.83;;
37945;SDS011;23769;52.478;13.448;2023-06-24T02:08:49;24.48;;;19.77;;
37945;SDS011;23769;52.478;13.448;2023-06-24T02:11:18;25.52;;;19.30;;
37945;SDS011;23769;52.478;13.448;2023-06-24T02:13:46;28.15;;;21.15;;
37945;SDS011;23769;52.478;13.448;2023-06-24T02:16:13;27.13;;;21.15;;
37945;SDS011;23769;52.478;13.448;2023-06-24T02:18:41;25.48;;;20.58;;
37945;SDS011;23769;52.478;13.448;2023-06-24T02:21:08;24.40;;;19.13;;
37945;SDS011;23769;52.478;13.448;2023-06-24T02:23:37;26.50;;;19.23;;
37945;SDS011;23769;52.478;13.448;2023-06-24T02:26:05;22.27;;;18.67;;
37945;SDS011;23769;52.478;13.448;2023-06-24T02:28:33;24.95;;;20.35;;
37945;SDS011;23769;52.478;13.448;2023-06-24T02:31:01;22.75;;;19.08;;
37945;SDS011;23769;52.478;13.448;2023-06-24T02:33:28;24.25;;;19.42;;
37945;SDS011;23769;52.478;13.448;2023-06-24T02:35:55;22.40;;;17.58;;
37945;SDS011;23769;52.478;13.448;2023-06-24T02:38:22;20.38;;;16.45;;
37945;SDS011;23769;52.478;13.448;2023-06-24T02:40:51;22.38;;;16.77;;
37945;SDS011;23769;52.478;13.448;2023-06-24T02:43:18;23.13;;;18.05;;
37945;SDS011;23769;52.478;13.448;2023-06-24T02:45:46;18.67;;;16.50;;
37945;SDS011;23769;52.478;13.448;2023-06-24T02:48:14;20.73;;;16.70;;
37945;SDS011;23769;52.478;13.448;2023-06-24T02:50:42;16.58;;;13.88;;
37945;SDS011;23769;52.478;13.448;2023-06-24T02:53:10;18.98;;;15.40;;
37945;SDS011;23769;52.478;13.448;2023-06-24T02:55:37;19.33;;;14.75;;
37945;SDS011;23769;52.478;13.448;2023-06-24T02:58:08;16.90;;;14.10;;
37945;SDS011;23769;52.478;13.448;2023-06-24T03:00:36;18.75;;;15.05;;
37945;SDS011;23769;52.478;13.448;2023-06-24T03:03:04;16.75;;;13.82;;
37945;SDS011;23769;52.478;13.448;2023-06-24T03:05:31;15.02;;;13.20;;
37945;SDS011;23769;52.478;13.448;2023-06-24T03:07:59;17.65;;;12.52;;
37945;SDS011;23769;52.478;13.448;2023-06-24T03:10:28;17.98;;;12.52;;
37945;SDS011;23769;52.478;13.448;2023-06-24T03:12:56;16.45;;;12.10;;
37945;SDS011;23769;52.478;13.448;2023-06-24T03:15:24;16.17;;;12.70;;
37945;SDS011;23769;52.478;13.448;2023-06-24T03:17:53;17.27;;;12.20;;
37945;SDS011;23769;52.478;13.448;2023-06-24T03:20:21;16.48;;;11.93;;
37945;SDS011;23769;52.478;13.448;2023-06-24T03:22:49;13.52;;;10.48;;
37945;SDS011;23769;52.478;13.448;2023-06-24T03:25:17;14.60;;;10.80;;
37945;SDS011;23769;52.478;13.448;2023-06-24T03:27:44;14.23;;;11.43;;
37945;SDS011;23769;52.478;13.448;2023-06-24T03:30:14;14.43;;;10.85;;
37945;SDS011;23769;52.478;13.448;2023-06-24T03:32:43;15.30;;;11.60;;
37945;SDS011;23769;52.478;13.448;2023-06-24T03:35:12;15.65;;;11.50;;
37945;SDS011;23769;52.478;13.448;2023-06-24T03:37:39;15.23;;;10.70;;
37945;SDS011;23769;52.478;13.448;2023-06-24T03:40:07;13.93;;;10.70;;
37945;SDS011;23769;52.478;13.448;2023-06-24T03:42:34;11.63;;;9.27;;
37945;SDS011;23769;52.478;13.448;2023-06-24T03:45:02;13.25;;;10.88;;
37945;SDS011;23769;52.478;13.448;2023-06-24T03:47:29;15.75;;;9.65;;
37945;SDS011;23769;52.478;13.448;2023-06-24T03:49:58;13.23;;;10.77;;
37945;SDS011;23769;52.478;13.448;2023-06-24T03:52:25;11.68;;;9.77;;
37945;SDS011;23769;52.478;13.448;2023-06-24T03:54:52;14.00;;;10.13;;
37945;SDS011;23769;52.478;13.448;2023-06-24T03:57:19;11.20;;;9.60;;
37945;SDS011;23769;52.478;13.448;2023-06-24T03:59:47;12.05;;;8.65;;
37945;SDS011;23769;52.478;13.448;2023-06-24T04:02:14;13.90;;;9.25;;
37945;SDS011;23769;52.478;13.448;2023-06-24T04:04:43;13.40;;;10.50;;
37945;SDS011;23769;52.478;13.448;2023-06-24T04:07:11;11.82;;;9.02;;
37945;SDS011;23769;52.478;13.448;2023-06-24T04:09:38;10.63;;;8.60;;
37945;SDS011;23769;52.478;13.448;2023-06-24T04:12:06;12.10;;;9.02;;
37945;SDS011;23769;52.478;13.448;2023-06-24T04:14:33;10.68;;;8.80;;
37945;SDS011;23769;52.478;13.448;2023-06-24T04:17:00;11.45;;;8.15;;
37945;SDS011;23769;52.478;13.448;2023-06-24T04:19:28;12.13;;;9.32;;
37945;SDS011;23769;52.478;13.448;2023-06-24T04:21:55;10.07;;;8.90;;
37945;SDS011;23769;52.478;13.448;2023-06-24T04:24:24;10.88;;;8.75;;
37945;SDS011;23769;52.478;13.448;2023-06-24T04:26:51;12.52;;;8.82;;
37945;SDS011;23769;52.478;13.448;2023-06-24T04:29:18;12.15;;;8.85;;
37945;SDS011;23769;52.478;13.448;2023-06-24T04:31:45;11.18;;;9.07;;
37945;SDS011;23769;52.478;13.448;2023-06-24T04:34:17;10.35;;;7.97;;
37945;SDS011;23769;52.478;13.448;2023-06-24T04:36:49;12.02;;;7.90;;
37945;SDS011;23769;52.478;13.448;2023-06-24T04:39:17;14.90;;;8.93;;
37945;SDS011;23769;52.478;13.448;2023-06-24T04:41:45;12.45;;;7.60;;
37945;SDS011;23769;52.478;13.448;2023-06-24T04:44:14;9.65;;;6.63;;
37945;SDS011;23769;52.478;13.448;2023-06-24T04:46:42;8.32;;;6.82;;
37945;SDS011;23769;52.478;13.448;2023-06-24T04:49:09;8.93;;;6.88;;
37945;SDS011;23769;52.478;13.448;2023-06-24T04:51:36;10.63;;;6.68;;
37945;SDS011;23769;52.478;13.448;2023-06-24T04:54:05;8.43;;;7.28;;
37945;SDS011;23769;52.478;13.448;2023-06-24T04:56:33;7.85;;;6.80;;
37945;SDS011;23769;52.478;13.448;2023-06-24T04:59:01;7.57;;;6.78;;
37945;SDS011;23769;52.478;13.448;2023-06-24T05:01:29;9.90;;;7.07;;
37945;SDS011;23769;52.478;13.448;2023-06-24T05:03:57;8.32;;;6.57;;
37945;SDS011;23769;52.478;13.448;2023-06-24T05:06:27;7.43;;;5.75;;
37945;SDS011;23769;52.478;13.448;2023-06-24T05:08:54;9.75;;;5.78;;
37945;SDS011;23769;52.478;13.448;2023-06-24T05:11:21;7.05;;;5.72;;
37945;SDS011;23769;52.478;13.448;2023-06-24T05:13:49;6.43;;;5.65;;
37945;SDS011;23769;52.478;13.448;2023-06-24T05:16:17;8.80;;;5.30;;
37945;SDS011;23769;52.478;13.448;2023-06-24T05:18:44;9.25;;;5.57;;
37945;SDS011;23769;52.478;13.448;2023-06-24T05:21:12;6.50;;;5.47;;
37945;SDS011;23769;52.478;13.448;2023-06-24T05:23:39;7.38;;;5.90;;
37945;SDS011;23769;52.478;13.448;2023-06-24T05:26:06;6.35;;;4.93;;
37945;SDS011;23769;52.478;13.448;2023-06-24T05:28:34;8.65;;;5.20;;
37945;SDS011;23769;52.478;13.448;2023-06-24T05:31:01;6.65;;;5.35;;
37945;SDS011;23769;52.478;13.448;2023-06-24T05:33:29;8.90;;;5.20;;
37945;SDS011;23769;52.478;13.448;2023-06-24T05:35:59;9.35;;;5.60;;
37945;SDS011;23769;52.478;13.448;2023-06-24T05:38:31;6.30;;;5.30;;
37945;SDS011;23769;52.478;13.448;2023-06-24T05:40:58;6.75;;;5.55;;
37945;SDS011;23769;52.478;13.448;2023-06-24T05:43:27;7.35;;;5.03;;
37945;SDS011;23769;52.478;13.448;2023-06-24T05:45:54;7.78;;;5.10;;
37945;SDS011;23769;52.478;13.448;2023-06-24T05:48:24;6.47;;;5.20;;
37945;SDS011;23769;52.478;13.448;2023-06-24T05:50:57;6.72;;;5.72;;
37945;SDS011;23769;52.478;13.448;2023-06-24T05:53:24;6.88;;;5.47;;
37945;SDS011;23769;52.478;13.448;2023-06-24T05:55:51;8.82;;;6.32;;
37945;SDS011;23769;52.478;13.448;2023-06-24T05:58:18;9.13;;;5.07;;
37945;SDS011;23769;52.478;13.448;2023-06-24T06:00:46;6.50;;;4.68;;
37945;SDS011;23769;52.478;13.448;2023-06-24T06:03:13;6.45;;;5.65;;
37945;SDS011;23769;52.478;13.448;2023-06-24T06:05:40;7.20;;;5.30;;
37945;SDS011;23769;52.478;13.448;2023-06-24T06:08:09;5.10;;;4.57;;
37945;SDS011;23769;52.478;13.448;2023-06-24T06:10:36;6.90;;;5.28;;
37945;SDS011;23769;52.478;13.448;2023-06-24T06:13:03;9.23;;;6.03;;
37945;SDS011;23769;52.478;13.448;2023-06-24T06:15:30;8.55;;;4.45;;
37945;SDS011;23769;52.478;13.448;2023-06-24T06:17:58;4.78;;;4.25;;
37945;SDS011;23769;52.478;13.448;2023-06-24T06:20:25;5.75;;;3.53;;
37945;SDS011;23769;52.478;13.448;2023-06-24T06:22:53;5.93;;;4.22;;
37945;SDS011;23769;52.478;13.448;2023-06-24T06:25:22;6.13;;;4.30;;
37945;SDS011;23769;52.478;13.448;2023-06-24T06:27:50;9.00;;;5.25;;
37945;SDS011;23769;52.478;13.448;2023-06-24T06:30:17;6.97;;;4.82;;
37945;SDS011;23769;52.478;13.448;2023-06-24T06:32:44;4.82;;;4.05;;
37945;SDS011;23769;52.478;13.448;2023-06-24T06:35:11;6.97;;;4.97;;
37945;SDS011;23769;52.478;13.448;2023-06-24T06:37:39;5.55;;;4.40;;
37945;SDS011;23769;52.478;13.448;2023-06-24T06:40:09;5.53;;;3.92;;
37945;SDS011;23769;52.478;13.448;2023-06-24T06:42:38;6.03;;;4.28;;
37945;SDS011;23769;52.478;13.448;2023-06-24T06:45:06;6.18;;;3.80;;
37945;SDS011;23769;52.478;13.448;2023-06-24T06:47:33;6.22;;;4.60;;
37945;SDS011;23769;52.478;13.448;2023-06-24T06:50:00;5.00;;;3.92;;
37945;SDS011;23769;52.478;13.448;2023-06-24T06:52:28;6.57;;;4.72;;
37945;SDS011;23769;52.478;13.448;2023-06-24T06:54:55;4.63;;;3.75;;
37945;SDS011;23769;52.478;13.448;2023-06-24T06:57:22;5.18;;;3.72;;
37945;SDS011;23769;52.478;13.448;2023-06-24T06:59:51;7.38;;;4.60;;
37945;SDS011;23769;52.478;13.448;2023-06-24T07:02:18;7.53;;;5.55;;
37945;SDS011;23769;52.478;13.448;2023-06-24T07:04:46;4.60;;;4.15;;
37945;SDS011;23769;52.478;13.448;2023-06-24T07:07:13;5.28;;;3.50;;
37945;SDS011;23769;52.478;13.448;2023-06-24T07:09:40;5.80;;;3.92;;
37945;SDS011;23769;52.478;13.448;2023-06-24T07:12:08;4.95;;;4.25;;
37945;SDS011;23769;52.478;13.448;2023-06-24T07:14:35;5.57;;;3.95;;
37945;SDS011;23769;52.478;13.448;2023-06-24T07:17:04;8.57;;;4.53;;
37945;SDS011;23769;52.478;13.448;2023-06-24T07:19:32;5.75;;;3.63;;
37945;SDS011;23769;52.478;13.448;2023-06-24T07:21:59;4.72;;;3.75;;
37945;SDS011;23769;52.478;13.448;2023-06-24T07:24:27;6.18;;;5.18;;
37945;SDS011;23769;52.478;13.448;2023-06-24T07:26:54;6.35;;;4.07;;
37945;SDS011;23769;52.478;13.448;2023-06-24T07:29:21;4.35;;;3.33;;
37945;SDS011;23769;52.478;13.448;2023-06-24T07:31:48;4.72;;;4.10;;
37945;SDS011;23769;52.478;13.448;2023-06-24T07:34:17;6.35;;;3.50;;
37945;SDS011;23769;52.478;13.448;2023-06-24T07:36:44;4.05;;;3.63;;
37945;SDS011;23769;52.478;13.448;2023-06-24T07:39:11;5.75;;;3.97;;
37945;SDS011;23769;52.478;13.448;2023-06-24T07:41:39;5.07;;;3.90;;
37945;SDS011;23769;52.478;13.448;2023-06-24T07:44:07;5.28;;;3.72;;
37945;SDS011;23769;52.478;13.448;2023-06-24T07:46:34;3.58;;;3.28;;
37945;SDS011;23769;52.478;13.448;2023-06-24T07:49:04;9.20;;;7.32;;
37945;SDS011;23769;52.478;13.448;2023-06-24T07:51:33;7.47;;;4.57;;
37945;SDS011;23769;52.478;13.448;2023-06-24T07:54:01;5.80;;;4.57;;
37945;SDS011;23769;52.478;13.448;2023-06-24T07:56:28;6.03;;;3.65;;
37945;SDS011;23769;52.478;13.448;2023-06-24T07:58:55;4.32;;;3.03;;
37945;SDS011;23769;52.478;13.448;2023-06-24T08:01:22;4.68;;;3.60;;
37945;SDS011;23769;52.478;13.448;2023-06-24T08:03:50;4.70;;;3.30;;
37945;SDS011;23769;52.478;13.448;2023-06-24T08:06:17;5.20;;;3.60;;
37945;SDS011;23769;52.478;13.448;2023-06-24T08:08:46;7.38;;;6.60;;
37945;SDS011;23769;52.478;13.448;2023-06-24T08:11:13;6.35;;;5.78;;
37945;SDS011;23769;52.478;13.448;2023-06-24T08:13:41;4.97;;;4.40;;
37945;SDS011;23769;52.478;13.448;2023-06-24T08:16:08;4.45;;;3.70;;
37945;SDS011;23769;52.478;13.448;2023-06-24T08:18:35;5.97;;;3.75;;
37945;SDS011;23769;52.478;13.448;2023-06-24T08:21:03;6.57;;;4.05;;
37945;SDS011;23769;52.478;13.448;2023-06-24T08:23:30;6.63;;;4.00;;
37945;SDS011;23769;52.478;13.448;2023-06-24T08:25:58;5.47;;;4.20;;
37945;SDS011;23769;52.478;13.448;2023-06-24T08:28:26;5.53;;;4.82;;
37945;SDS011;23769;52.478;13.448;2023-06-24T08:30:53;4.57;;;4.10;;
37945;SDS011;23769;52.478;13.448;2023-06-24T08:33:20;5.65;;;4.32;;
37945;SDS011;23769;52.478;13.448;2023-06-24T08:35:47;11.30;;;5.28;;
37945;SDS011;23769;52.478;13.448;2023-06-24T08:38:15;10.15;;;8.05;;
37945;SDS011;23769;52.478;13.448;2023-06-24T08:40:42;6.15;;;5.47;;
37945;SDS011;23769;52.478;13.448;2023-06-24T08:43:11;5.70;;;4.30;;
37945;SDS011;23769;52.478;13.448;2023-06-24T08:45:38;5.07;;;4.47;;
37945;SDS011;23769;52.478;13.448;2023-06-24T08:48:06;6.88;;;4.90;;
37945;SDS011;23769;52.478;13.448;2023-06-24T08:50:35;6.43;;;4.13;;
37945;SDS011;23769;52.478;13.448;2023-06-24T08:53:03;7.93;;;4.80;;
37945;SDS011;23769;52.478;13.448;2023-06-24T08:55:32;7.10;;;4.25;;
37945;SDS011;23769;52.478;13.448;2023-06-24T08:58:02;7.30;;;4.50;;
37945;SDS011;23769;52.478;13.448;2023-06-24T09:00:31;6.22;;;4.38;;
37945;SDS011;23769;52.478;13.448;2023-06-24T09:02:58;8.90;;;4.10;;
37945;SDS011;23769;52.478;13.448;2023-06-24T09:05:25;8.48;;;4.97;;
37945;SDS011;23769;52.478;13.448;2023-06-24T09:07:53;6.45;;;3.88;;
37945;SDS011;23769;52.478;13.448;2023-06-24T09:10:29;7.10;;;4.15;;
37945;SDS011;23769;52.478;13.448;2023-06-24T09:12:57;6.03;;;5.03;;
37945;SDS011;23769;52.478;13.448;2023-06-24T09:15:25;4.95;;;3.63;;
37945;SDS011;23769;52.478;13.448;2023-06-24T09:17:54;6.03;;;4.47;;
37945;SDS011;23769;52.478;13.448;2023-06-24T09:20:21;8.75;;;4.53;;
37945;SDS011;23769;52.478;13.448;2023-06-24T09:22:50;6.32;;;4.75;;
37945;SDS011;23769;52.478;13.448;2023-06-24T09:25:18;9.70;;;7.38;;
37945;SDS011;23769;52.478;13.448;2023-06-24T09:27:48;5.78;;;5.03;;
37945;SDS011;23769;52.478;13.448;2023-06-24T09:30:17;8.07;;;3.63;;
37945;SDS011;23769;52.478;13.448;2023-06-24T09:32:45;7.95;;;5.32;;
37945;SDS011;23769;52.478;13.448;2023-06-24T09:35:15;7.55;;;5.32;;
37945;SDS011;23769;52.478;13.448;2023-06-24T09:37:48;6.55;;;4.78;;
37945;SDS011;23769;52.478;13.448;2023-06-24T09:40:16;6.30;;;4.53;;
37945;SDS011;23769;52.478;13.448;2023-06-24T09:42:53;6.55;;;5.10;;
37945;SDS011;23769;52.478;13.448;2023-06-24T09:45:26;7.13;;;5.28;;
37945;SDS011;23769;52.478;13.448;2023-06-24T09:47:54;7.80;;;4.70;;
37945;SDS011;23769;52.478;13.448;2023-06-24T09:50:22;8.63;;;5.20;;
37945;SDS011;23769;52.478;13.448;2023-06-24T09:52:50;4.40;;;3.92;;
37945;SDS011;23769;52.478;13.448;2023-06-24T09:55:17;5.47;;;4.30;;
37945;SDS011;23769;52.478;13.448;2023-06-24T09:57:45;5.78;;;3.90;;
37945;SDS011;23769;52.478;13.448;2023-06-24T10:00:14;5.40;;;3.88;;
37945;SDS011;23769;52.478;13.448;2023-06-24T10:02:41;5.53;;;3.97;;
37945;SDS011;23769;52.478;13.448;2023-06-24T10:05:09;7.32;;;4.38;;
37945;SDS011;23769;52.478;13.448;2023-06-24T10:07:37;4.15;;;3.58;;
37945;SDS011;23769;52.478;13.448;2023-06-24T10:10:06;5.70;;;4.05;;
37945;SDS011;23769;52.478;13.448;2023-06-24T10:12:34;6.85;;;5.15;;
37945;SDS011;23769;52.478;13.448;2023-06-24T10:15:02;6.18;;;4.82;;
37945;SDS011;23769;52.478;13.448;2023-06-24T10:17:29;6.65;;;4.75;;
37945;SDS011;23769;52.478;13.448;2023-06-24T10:19:56;9.13;;;6.75;;
37945;SDS011;23769;52.478;13.448;2023-06-24T10:22:24;6.22;;;3.92;;
37945;SDS011;23769;52.478;13.448;2023-06-24T10:24:55;5.88;;;3.92;;
37945;SDS011;23769;52.478;13.448;2023-06-24T10:27:28;6.00;;;3.47;;
37945;SDS011;23769;52.478;13.448;2023-06-24T10:30:01;4.03;;;3.55;;
37945;SDS011;23769;52.478;13.448;2023-06-24T10:32:29;4.28;;;3.25;;
37945;SDS011;23769;52.478;13.448;2023-06-24T10:35:06;5.30;;;3.40;;
37945;SDS011;23769;52.478;13.448;2023-06-24T10:37:33;3.85;;;3.35;;
37945;SDS011;23769;52.478;13.448;2023-06-24T10:40:02;9.00;;;3.97;;
37945;SDS011;23769;52.478;13.448;2023-06-24T10:42:36;3.70;;;3.38;;
37945;SDS011;23769;52.478;13.448;2023-06-24T10:45:14;4.13;;;3.13;;
37945;SDS011;23769;52.478;13.448;2023-06-24T10:47:42;8.25;;;4.88;;
37945;SDS011;23769;52.478;13.448;2023-06-24T10:50:10;5.13;;;3.30;;
37945;SDS011;23769;52.478;13.448;2023-06-24T10:52:37;5.95;;;4.15;;
37945;SDS011;23769;52.478;13.448;2023-06-24T10:55:06;6.75;;;3.38;;
37945;SDS011;23769;52.478;13.448;2023-06-24T10:57:34;6.53;;;4.40;;
37945;SDS011;23769;52.478;13.448;2023-06-24T11:00:02;6.00;;;4.03;;
37945;SDS011;23769;52.478;13.448;2023-06-24T11:02:29;6.97;;;4.25;;
37945;SDS011;23769;52.478;13.448;2023-06-24T11:04:57;8.50;;;5.35;;
37945;SDS011;23769;52.478;13.448;2023-06-24T11:07:25;6.88;;;4.15;;
37945;SDS011;23769;52.478;13.448;2023-06-24T11:09:53;6.78;;;4.20;;
37945;SDS011;23769;52.478;13.448;2023-06-24T11:12:24;14.48;;;6.22;;
37945;SDS011;23769;52.478;13.448;2023-06-24T11:14:51;8.43;;;4.35;;
37945;SDS011;23769;52.478;13.448;2023-06-24T11:17:19;5.22;;;3.97;;
37945;SDS011;23769;52.478;13.448;2023-06-24T11:19:47;8.35;;;6.13;;
37945;SDS011;23769;52.478;13.448;2023-06-24T11:22:15;4.00;;;3.60;;
37945;SDS011;23769;52.478;13.448;2023-06-24T11:24:42;8.18;;;4.93;;
37945;SDS011;23769;52.478;13.448;2023-06-24T11:27:09;6.28;;;3.25;;
37945;SDS011;23769;52.478;13.448;2023-06-24T11:29:38;4.80;;;3.78;;
37945;SDS011;23769;52.478;13.448;2023-06-24T11:32:07;5.03;;;4.40;;
37945;SDS011;23769;52.478;13.448;2023-06-24T11:34:34;7.97;;;5.63;;
37945;SDS011;23769;52.478;13.448;2023-06-24T11:37:08;5.15;;;4.20;;
37945;SDS011;23769;52.478;13.448;2023-06-24T11:39:36;5.63;;;3.53;;
37945;SDS011;23769;52.478;13.448;2023-06-24T11:42:05;4.53;;;3.88;;
37945;SDS011;23769;52.478;13.448;2023-06-24T11:44:32;4.65;;;3.88;;
37945;SDS011;23769;52.478;13.448;2023-06-24T11:47:04;8.52;;;4.25;;
37945;SDS011;23769;52.478;13.448;2023-06-24T11:49:32;4.85;;;3.70;;
37945;SDS011;23769;52.478;13.448;2023-06-24T11:51:59;6.00;;;3.55;;
37945;SDS011;23769;52.478;13.448;2023-06-24T11:54:26;5.63;;;4.47;;
37945;SDS011;23769;52.478;13.448;2023-06-24T11:56:53;7.35;;;4.30;;
37945;SDS011;23769;52.478;13.448;2023-06-24T11:59:21;5.88;;;4.18;;
37945;SDS011;23769;52.478;13.448;2023-06-24T12:01:54;5.70;;;3.78;;
37945;SDS011;23769;52.478;13.448;2023-06-24T12:04:26;8.45;;;4.50;;
37945;SDS011;23769;52.478;13.448;2023-06-24T12:06:54;5.85;;;4.78;;
37945;SDS011;23769;52.478;13.448;2023-06-24T12:09:21;5.70;;;3.95;;
37945;SDS011;23769;52.478;13.448;2023-06-24T12:11:49;6.72;;;3.42;;
37945;SDS011;23769;52.478;13.448;2023-06-24T12:14:16;6.30;;;4.30;;
37945;SDS011;23769;52.478;13.448;2023-06-24T12:16:43;7.18;;;4.65;;
37945;SDS011;23769;52.478;13.448;2023-06-24T12:19:11;7.22;;;5.20;;
37945;SDS011;23769;52.478;13.448;2023-06-24T12:21:39;9.05;;;5.47;;
37945;SDS011;23769;52.478;13.448;2023-06-24T12:24:06;6.65;;;5.22;;
37945;SDS011;23769;52.478;13.448;2023-06-24T12:26:34;6.47;;;4.88;;
37945;SDS011;23769;52.478;13.448;2023-06-24T12:29:02;7.35;;;3.67;;
37945;SDS011;23769;52.478;13.448;2023-06-24T12:31:29;6.38;;;3.42;;
37945;SDS011;23769;52.478;13.448;2023-06-24T12:33:57;6.05;;;5.00;;
37945;SDS011;23769;52.478;13.448;2023-06-24T12:36:24;4.82;;;3.40;;
37945;SDS011;23769;52.478;13.448;2023-06-24T12:38:52;5.70;;;3.53;;
37945;SDS011;23769;52.478;13.448;2023-06-24T12:41:20;5.82;;;4.10;;
37945;SDS011;23769;52.478;13.448;2023-06-24T12:43:47;7.32;;;4.82;;
37945;SDS011;23769;52.478;13.448;2023-06-24T12:46:14;6.95;;;3.97;;
37945;SDS011;23769;52.478;13.448;2023-06-24T12:48:42;10.45;;;6.25;;
37945;SDS011;23769;52.478;13.448;2023-06-24T12:51:10;4.93;;;3.47;;
37945;SDS011;23769;52.478;13.448;2023-06-24T12:53:37;8.43;;;6.18;;
37945;SDS011;23769;52.478;13.448;2023-06-24T12:56:05;4.25;;;3.63;;
37945;SDS011;23769;52.478;13.448;2023-06-24T12:58:33;5.93;;;3.85;;
37945;SDS011;23769;52.478;13.448;2023-06-24T13:01:01;5.57;;;4.10;;
37945;SDS011;23769;52.478;13.448;2023-06-24T13:03:28;5.90;;;3.97;;
37945;SDS011;23769;52.478;13.448;2023-06-24T13:05:55;5.43;;;4.70;;
37945;SDS011;23769;52.478;13.448;2023-06-24T13:08:23;10.70;;;5.00;;
37945;SDS011;23769;52.478;13.448;2023-06-24T13:10:50;6.00;;;4.32;;
37945;SDS011;23769;52.478;13.448;2023-06-24T13:13:18;5.90;;;3.90;;
37945;SDS011;23769;52.478;13.448;2023-06-24T13:15:46;6.03;;;3.88;;
37945;SDS011;23769;52.478;13.448;2023-06-24T13:18:13;6.10;;;4.47;;
37945;SDS011;23769;52.478;13.448;2023-06-24T13:20:40;5.88;;;4.65;;
37945;SDS011;23769;52.478;13.448;2023-06-24T13:23:07;4.85;;;3.75;;
37945;SDS011;23769;52.478;13.448;2023-06-24T13:25:34;6.47;;;4.30;;
37945;SDS011;23769;52.478;13.448;2023-06-24T13:28:02;7.00;;;5.05;;
37945;SDS011;23769;52.478;13.448;2023-06-24T13:30:30;9.23;;;5.15;;
37945;SDS011;23769;52.478;13.448;2023-06-24T13:32:58;7.32;;;4.65;;
37945;SDS011;23769;52.478;13.448;2023-06-24T13:35:25;7.97;;;4.88;;
37945;SDS011;23769;52.478;13.448;2023-06-24T13:37:52;6.10;;;4.45;;
37945;SDS011;23769;52.478;13.448;2023-06-24T13:40:19;7.50;;;5.35;;
37945;SDS011;23769;52.478;13.448;2023-06-24T13:42:46;10.25;;;7.53;;
37945;SDS011;23769;52.478;13.448;2023-06-24T13:45:14;7.95;;;5.90;;
37945;SDS011;23769;52.478;13.448;2023-06-24T13:47:42;7.50;;;5.95;;
37945;SDS011;23769;52.478;13.448;2023-06-24T13:50:10;7.03;;;4.95;;
37945;SDS011;23769;52.478;13.448;2023-06-24T13:52:37;6.90;;;4.40;;
37945;SDS011;23769;52.478;13.448;2023-06-24T13:55:04;6.32;;;3.75;;
37945;SDS011;23769;52.478;13.448;2023-06-24T13:57:32;9.43;;;4.05;;
37945;SDS011;23769;52.478;13.448;2023-06-24T13:59:59;5.28;;;4.65;;
37945;SDS011;23769;52.478;13.448;2023-06-24T14:02:26;4.45;;;3.75;;
37945;SDS011;23769;52.478;13.448;2023-06-24T14:04:55;5.40;;;4.30;;
37945;SDS011;23769;52.478;13.448;2023-06-24T14:07:22;8.27;;;6.53;;
37945;SDS011;23769;52.478;13.448;2023-06-24T14:09:50;5.95;;;4.80;;
37945;SDS011;23769;52.478;13.448;2023-06-24T14:12:17;4.90;;;3.72;;
37945;SDS011;23769;52.478;13.448;2023-06-24T14:14:44;6.22;;;4.13;;
37945;SDS011;23769;52.478;13.448;2023-06-24T14:17:12;5.82;;;4.03;;
37945;SDS011;23769;52.478;13.448;2023-06-24T14:19:39;8.38;;;5.60;;
37945;SDS011;23769;52.478;13.448;2023-06-24T14:22:08;8.45;;;7.00;;
37945;SDS011;23769;52.478;13.448;2023-06-24T14:24:35;4.28;;;3.88;;
37945;SDS011;23769;52.478;13.448;2023-06-24T14:27:03;5.15;;;4.53;;
37945;SDS011;23769;52.478;13.448;2023-06-24T14:29:31;7.30;;;4.35;;
37945;SDS011;23769;52.478;13.448;2023-06-24T14:31:58;8.70;;;4.32;;